Disclaimer

Please do not use the information listed here in-flight or in-navigation, as they are not provided to us by the airports but are provided by volunteers, so they might be outdated.

Search


Regions


Airport information page

Radio informations:
BARILOCHE TWR/AP - 119.1 MHz
BARILOCHE RDO - 122.3 MHz
Automatic Terminal Information Service (ATIS) - 127.9 MHz

Airport informations:
Latitude: 41° 09' 04.22" S
Longitude: 071° 09' 27.15" W
Elevation: 2776 feet - 846 meters
Operating hours: Remarks
Operating agency: Civil government, landing fees and diplomatic clearance may be required
Timezone: UTC-3
Fuel: Jet A1, without icing nhibitor.

100/130 MIL Spec, low lead, aviation gasoline (BLUE)

Runway information:
11/29 - 7703 x 157 feet< - >2348 x 48 meters

Recent METARs:
SAZS 211100Z 29026KT 9000 VCSH SCT028 SCT033 13/08 Q1002
SAZS 211100Z 29026KT 9000 VCSH SCT028 SCT033 13/08 Q1002
SAZS 211100Z 29026KT 9000 VCSH SCT028 SCT033 13/08 Q1002

Airport on the map: